Time;durP1;ratioP1;P1;durP2;ratioP2;P2;SDS_P1;SDS_P2;PMS_P1;PMS_P2;Temp;Humidity;BMP_temperature;BMP_pressure;BME280_temperature;BME280_humidity;BME280_pressure;Samples;Min_cycle;Max_cycle;Signal;HPM_P1;HPM_P2
2021/07/01 00:01:20;;;;;;;24.57;12.05;;;18.90;99.90;;;;;;1881212;75;21215;-73
2021/07/01 00:03:47;;;;;;;27.80;13.08;;;18.90;99.90;;;;;;1881500;75;21097;-73
2021/07/01 00:06:16;;;;;;;26.68;12.05;;;19.00;99.90;;;;;;1880324;74;21114;-73
2021/07/01 00:08:46;;;;;;;25.30;12.35;;;19.00;99.90;;;;;;1884248;75;21611;-73
2021/07/01 00:11:13;;;;;;;23.10;11.90;;;18.90;99.90;;;;;;1877434;75;21171;-73
2021/07/01 00:13:40;;;;;;;27.02;12.73;;;18.90;99.90;;;;;;1883575;75;21101;-73
2021/07/01 00:16:08;;;;;;;27.27;12.15;;;18.90;99.90;;;;;;1917545;72;21110;-70
2021/07/01 00:18:35;;;;;;;23.10;12.10;;;18.80;99.90;;;;;;1948425;72;21054;-70
2021/07/01 00:21:03;;;;;;;31.62;12.28;;;18.90;99.90;;;;;;1948406;72;21049;-69
2021/07/01 00:23:30;;;;;;;28.20;12.75;;;18.90;99.90;;;;;;1948992;72;21057;-69
2021/07/01 00:25:58;;;;;;;22.80;12.28;;;18.90;99.90;;;;;;1951189;72;21042;-69
2021/07/01 00:28:25;;;;;;;24.80;12.40;;;18.90;99.90;;;;;;1947094;73;21093;-69
2021/07/01 00:30:53;;;;;;;25.17;12.70;;;18.90;99.90;;;;;;1950053;72;21159;-69
2021/07/01 00:33:20;;;;;;;25.00;12.23;;;18.90;99.90;;;;;;1947317;72;21175;-68
2021/07/01 00:35:48;;;;;;;21.33;11.50;;;19.00;99.90;;;;;;1947598;72;21071;-69
2021/07/01 00:38:15;;;;;;;28.27;12.28;;;19.00;99.90;;;;;;1948579;72;21160;-67
2021/07/01 00:40:43;;;;;;;20.17;12.40;;;19.00;99.90;;;;;;1950294;72;21102;-69
2021/07/01 00:43:10;;;;;;;20.65;12.43;;;18.90;99.90;;;;;;1948205;72;20988;-68
2021/07/01 00:45:38;;;;;;;23.35;12.53;;;18.90;99.90;;;;;;1948958;73;21027;-68
2021/07/01 00:48:05;;;;;;;22.13;12.15;;;18.90;99.90;;;;;;1953081;72;21064;-69
2021/07/01 00:50:33;;;;;;;25.43;12.90;;;18.90;99.90;;;;;;1947355;72;21085;-69
2021/07/01 00:53:00;;;;;;;20.95;12.25;;;18.90;99.90;;;;;;1948376;73;21042;-69
2021/07/01 00:55:28;;;;;;;23.07;12.40;;;18.90;99.90;;;;;;1948166;72;21074;-68
2021/07/01 00:57:55;;;;;;;22.90;12.63;;;18.90;99.90;;;;;;1947481;73;21160;-68
2021/07/01 01:00:36;;;;;;;21.37;11.95;;;18.90;99.90;;;;;;1948656;72;21175;-67
2021/07/01 01:02:55;;;;;;;24.60;12.15;;;18.90;99.90;;;;;;1951188;72;21643;-68
2021/07/01 01:05:24;;;;;;;27.05;13.15;;;18.80;99.90;;;;;;1948086;72;21055;-69
2021/07/01 01:07:52;;;;;;;26.02;11.95;;;18.80;99.90;;;;;;1948812;72;21145;-67
2021/07/01 01:10:20;;;;;;;22.67;11.78;;;18.80;99.90;;;;;;1950291;72;21357;-68
2021/07/01 01:12:47;;;;;;;25.45;12.00;;;18.80;99.90;;;;;;1947166;72;21230;-68
2021/07/01 01:15:15;;;;;;;25.82;13.40;;;18.80;99.90;;;;;;1947506;72;21179;-68
2021/07/01 01:17:48;;;;;;;23.60;12.23;;;18.80;99.90;;;;;;1947954;72;21070;-69
2021/07/01 01:20:14;;;;;;;23.20;12.60;;;18.80;99.90;;;;;;1946679;72;21672;-69
2021/07/01 01:22:41;;;;;;;28.50;13.08;;;18.80;99.90;;;;;;1948460;72;21497;-69
2021/07/01 01:25:10;;;;;;;29.77;12.88;;;18.70;99.90;;;;;;1951017;72;21529;-68
2021/07/01 01:27:37;;;;;;;23.50;13.28;;;18.70;99.90;;;;;;1947204;72;22802;-68
2021/07/01 01:30:06;;;;;;;23.40;12.78;;;18.70;99.90;;;;;;1948691;72;21692;-69
2021/07/01 01:32:34;;;;;;;25.88;13.60;;;18.70;99.90;;;;;;1949727;72;21055;-68
2021/07/01 01:35:02;;;;;;;26.87;13.45;;;18.70;99.90;;;;;;1948587;72;21059;-69
2021/07/01 01:37:29;;;;;;;28.20;13.38;;;18.60;99.90;;;;;;1950939;72;21105;-68
2021/07/01 01:39:57;;;;;;;24.63;13.28;;;18.50;99.90;;;;;;1946342;72;21053;-68
2021/07/01 01:42:24;;;;;;;26.97;13.38;;;18.60;99.90;;;;;;1950603;72;21573;-68
2021/07/01 01:44:52;;;;;;;29.85;13.55;;;18.50;99.90;;;;;;1949520;72;21129;-69
2021/07/01 01:47:21;;;;;;;30.02;14.33;;;18.50;99.90;;;;;;1948528;72;21110;-69
2021/07/01 01:49:50;;;;;;;26.68;13.83;;;18.50;99.90;;;;;;1951057;72;21093;-69
2021/07/01 01:52:18;;;;;;;32.98;14.28;;;18.50;99.90;;;;;;1949382;72;21007;-69
2021/07/01 01:54:45;;;;;;;26.48;13.75;;;18.40;99.90;;;;;;1949430;73;21120;-69
2021/07/01 01:57:13;;;;;;;28.47;14.98;;;18.50;99.90;;;;;;1951807;72;21681;-68
2021/07/01 01:59:40;;;;;;;32.78;15.15;;;18.40;99.90;;;;;;1947649;72;21026;-68
2021/07/01 02:02:08;;;;;;;34.20;15.13;;;18.30;99.90;;;;;;1949634;73;20995;-69
2021/07/01 02:04:35;;;;;;;36.63;15.68;;;18.30;99.90;;;;;;1949704;72;20987;-69
2021/07/01 02:07:03;;;;;;;33.33;15.30;;;18.30;99.90;;;;;;1949408;72;21172;-69
2021/07/01 02:09:30;;;;;;;31.73;14.20;;;18.20;99.90;;;;;;1948668;72;21121;-69
2021/07/01 02:11:58;;;;;;;40.50;16.10;;;18.20;99.90;;;;;;1948796;72;21054;-68
2021/07/01 02:14:26;;;;;;;30.15;14.83;;;18.20;99.90;;;;;;1948133;72;21218;-69
2021/07/01 02:16:54;;;;;;;42.60;17.23;;;18.30;99.90;;;;;;1948854;72;21599;-68
2021/07/01 02:19:22;;;;;;;33.42;14.98;;;18.30;99.90;;;;;;1948106;72;21113;-68
2021/07/01 02:21:50;;;;;;;33.25;15.25;;;18.40;99.90;;;;;;1946600;72;21050;-68
2021/07/01 02:24:17;;;;;;;36.83;15.53;;;18.30;99.90;;;;;;1949512;73;20996;-69
2021/07/01 02:26:45;;;;;;;38.55;16.52;;;18.30;99.90;;;;;;1948908;72;21266;-69
2021/07/01 02:29:12;;;;;;;42.60;16.52;;;18.20;99.90;;;;;;1948189;73;21137;-68
2021/07/01 02:31:40;;;;;;;33.75;15.23;;;18.20;99.90;;;;;;1948781;72;21231;-69
2021/07/01 02:34:07;;;;;;;36.63;15.38;;;18.20;99.90;;;;;;1948533;72;21078;-69
2021/07/01 02:36:35;;;;;;;41.75;16.30;;;18.10;99.90;;;;;;1949422;72;21098;-68
2021/07/01 02:39:03;;;;;;;43.30;16.75;;;18.20;99.90;;;;;;1950010;72;21075;-68
2021/07/01 02:41:30;;;;;;;34.35;15.40;;;18.20;99.90;;;;;;1948725;72;21081;-69
2021/07/01 02:43:58;;;;;;;39.75;16.37;;;18.20;99.90;;;;;;1946908;72;21511;-69
2021/07/01 02:46:25;;;;;;;37.55;16.27;;;18.20;99.90;;;;;;1947982;72;21536;-68
2021/07/01 02:48:53;;;;;;;38.15;16.32;;;18.30;99.90;;;;;;1948510;73;21328;-69
2021/07/01 02:51:20;;;;;;;35.13;16.60;;;18.30;99.90;;;;;;1946966;73;20987;-68
2021/07/01 02:53:48;;;;;;;40.58;16.97;;;18.30;99.90;;;;;;1949404;72;21030;-69
2021/07/01 02:56:16;;;;;;;35.60;16.37;;;18.20;99.90;;;;;;1950257;72;22569;-69
2021/07/01 02:58:43;;;;;;;35.90;16.73;;;18.20;99.90;;;;;;1948384;73;21523;-69
2021/07/01 03:01:11;;;;;;;38.15;17.27;;;18.10;99.90;;;;;;1948593;72;21066;-69
2021/07/01 03:03:38;;;;;;;38.70;18.02;;;18.00;99.90;;;;;;1949689;72;21090;-69
2021/07/01 03:06:06;;;;;;;35.52;16.82;;;18.00;99.90;;;;;;1944123;72;21553;-68
2021/07/01 03:08:33;;;;;;;41.28;17.73;;;18.00;99.90;;;;;;1946375;73;21040;-68
2021/07/01 03:11:01;;;;;;;38.78;16.90;;;18.00;99.90;;;;;;1949791;72;21344;-69
2021/07/01 03:13:28;;;;;;;41.68;18.25;;;18.10;99.90;;;;;;1947584;73;21505;-68
2021/07/01 03:15:56;;;;;;;42.35;17.90;;;18.00;99.90;;;;;;1947757;72;21086;-68
2021/07/01 03:18:23;;;;;;;47.70;18.27;;;18.10;99.90;;;;;;1947710;72;21058;-68
2021/07/01 03:20:51;;;;;;;40.48;18.73;;;18.10;99.90;;;;;;1950396;72;21709;-67
2021/07/01 03:23:18;;;;;;;31.35;16.27;;;18.20;99.90;;;;;;1948865;73;21069;-69
2021/07/01 03:25:45;;;;;;;32.48;17.30;;;18.20;99.90;;;;;;1951098;72;21144;-67
2021/07/01 03:28:13;;;;;;;34.85;16.73;;;18.20;99.90;;;;;;1951347;72;21066;-69
2021/07/01 03:30:41;;;;;;;37.83;17.37;;;18.10;99.90;;;;;;1950630;72;21042;-69
2021/07/01 03:33:08;;;;;;;37.23;17.20;;;18.10;99.90;;;;;;1949846;72;21147;-69
2021/07/01 03:35:35;;;;;;;36.23;17.37;;;18.10;99.90;;;;;;1950887;72;21157;-69
2021/07/01 03:38:03;;;;;;;38.90;17.55;;;18.10;99.90;;;;;;1951191;72;21074;-68
2021/07/01 03:40:31;;;;;;;34.30;15.55;;;18.10;99.90;;;;;;1948023;72;21099;-68
2021/07/01 03:42:58;;;;;;;32.28;17.05;;;18.10;99.90;;;;;;1947468;72;21182;-67
2021/07/01 03:45:26;;;;;;;35.65;17.48;;;18.00;99.90;;;;;;1947132;72;21168;-68
2021/07/01 03:47:53;;;;;;;32.10;15.40;;;18.00;99.90;;;;;;1948648;72;21160;-68
2021/07/01 03:50:20;;;;;;;30.17;16.00;;;18.10;99.90;;;;;;1950319;72;21420;-69
2021/07/01 03:52:48;;;;;;;36.13;17.23;;;18.00;99.90;;;;;;1948229;72;21073;-68
2021/07/01 03:55:18;;;;;;;29.52;15.70;;;18.00;99.90;;;;;;1948764;72;21105;-69
2021/07/01 03:57:45;;;;;;;26.33;15.35;;;18.00;99.90;;;;;;1946986;73;21074;-67
2021/07/01 04:00:15;;;;;;;29.05;16.93;;;18.00;99.90;;;;;;1949937;72;21211;-67
2021/07/01 04:02:43;;;;;;;25.70;15.53;;;18.00;99.90;;;;;;1949193;72;21073;-69
2021/07/01 04:05:10;;;;;;;27.93;15.98;;;18.00;99.90;;;;;;1947234;73;21157;-69
2021/07/01 04:07:38;;;;;;;24.90;14.23;;;18.00;99.90;;;;;;1948903;73;21058;-68
2021/07/01 04:10:10;;;;;;;28.45;15.00;;;18.00;99.90;;;;;;1949500;72;21097;-68
2021/07/01 04:12:37;;;;;;;24.10;15.53;;;18.10;99.90;;;;;;1947473;72;21073;-69
2021/07/01 04:15:05;;;;;;;26.62;15.68;;;18.10;99.90;;;;;;1951575;72;21085;-68
2021/07/01 04:17:33;;;;;;;24.60;14.50;;;18.10;99.90;;;;;;1948322;72;21093;-68
2021/07/01 04:20:00;;;;;;;31.05;14.80;;;18.10;99.90;;;;;;1947525;72;21576;-68
2021/07/01 04:22:28;;;;;;;26.77;14.20;;;18.10;99.90;;;;;;1951654;72;21086;-68
2021/07/01 04:24:55;;;;;;;23.42;13.48;;;18.20;99.90;;;;;;1949554;72;21009;-67
2021/07/01 04:27:23;;;;;;;24.27;13.50;;;18.20;99.90;;;;;;1948405;72;21512;-68
2021/07/01 04:29:50;;;;;;;24.55;13.35;;;18.10;99.90;;;;;;1949280;72;21077;-68
2021/07/01 04:32:18;;;;;;;20.08;13.03;;;18.10;99.90;;;;;;1948434;72;21054;-68
2021/07/01 04:34:49;;;;;;;20.95;12.90;;;18.10;99.90;;;;;;1947315;72;21558;-68
2021/07/01 04:37:17;;;;;;;21.85;13.38;;;18.00;99.90;;;;;;1951453;72;21097;-69
2021/07/01 04:39:44;;;;;;;23.87;12.68;;;18.00;99.90;;;;;;1948288;72;21218;-69
2021/07/01 04:42:12;;;;;;;26.80;12.50;;;18.10;99.90;;;;;;1950067;72;21102;-68
2021/07/01 04:44:40;;;;;;;19.85;11.78;;;18.10;99.90;;;;;;1946601;72;21022;-68
2021/07/01 04:47:07;;;;;;;17.10;11.38;;;18.20;99.90;;;;;;1947819;72;21158;-69
2021/07/01 04:49:35;;;;;;;15.85;11.25;;;18.10;99.90;;;;;;1948163;72;21095;-68
2021/07/01 04:52:02;;;;;;;17.48;10.65;;;18.00;99.90;;;;;;1947807;73;21039;-69
2021/07/01 04:54:30;;;;;;;20.17;10.82;;;18.00;99.90;;;;;;1948923;72;21149;-67
2021/07/01 04:56:57;;;;;;;17.02;9.85;;;18.00;99.90;;;;;;1949262;72;21114;-68
2021/07/01 04:59:25;;;;;;;16.60;9.13;;;18.10;99.90;;;;;;1947455;72;21464;-68
2021/07/01 05:01:55;;;;;;;15.75;9.13;;;18.10;99.90;;;;;;1950986;72;21086;-69
2021/07/01 05:04:21;;;;;;;13.00;8.55;;;18.10;99.90;;;;;;1946936;72;21128;-67
2021/07/01 05:06:49;;;;;;;15.58;9.03;;;18.20;99.90;;;;;;1946452;72;21182;-69
2021/07/01 05:09:17;;;;;;;13.13;7.83;;;18.20;99.90;;;;;;1948351;72;21610;-68
2021/07/01 05:11:44;;;;;;;13.30;7.55;;;18.30;99.90;;;;;;1951837;72;21136;-67
2021/07/01 05:14:12;;;;;;;10.35;7.62;;;18.20;99.90;;;;;;1948319;72;21580;-68
2021/07/01 05:16:39;;;;;;;12.07;7.00;;;18.10;99.90;;;;;;1947567;72;21544;-68
2021/07/01 05:19:07;;;;;;;10.30;6.22;;;18.20;99.90;;;;;;1948285;72;21088;-69
2021/07/01 05:21:34;;;;;;;8.93;6.53;;;18.20;99.90;;;;;;1950040;72;21098;-68
2021/07/01 05:24:02;;;;;;;10.93;6.58;;;18.20;99.90;;;;;;1948699;73;21011;-68
2021/07/01 05:26:29;;;;;;;11.48;6.28;;;18.30;99.90;;;;;;1948635;72;21109;-69
2021/07/01 05:28:57;;;;;;;8.30;6.40;;;18.30;99.90;;;;;;1948311;72;21403;-69
2021/07/01 05:31:24;;;;;;;8.18;6.37;;;18.30;99.90;;;;;;1947871;72;21982;-67
2021/07/01 05:33:52;;;;;;;8.68;6.37;;;18.40;99.90;;;;;;1948580;72;21042;-69
2021/07/01 05:36:19;;;;;;;9.80;6.35;;;18.40;99.90;;;;;;1951109;72;21200;-69
2021/07/01 05:38:47;;;;;;;9.23;6.33;;;18.40;99.90;;;;;;1949610;72;21551;-68
2021/07/01 05:41:14;;;;;;;9.08;5.47;;;18.30;99.90;;;;;;1949707;72;21100;-69
2021/07/01 05:43:42;;;;;;;11.10;5.80;;;18.30;99.90;;;;;;1947942;72;21066;-69
2021/07/01 05:46:09;;;;;;;8.30;5.97;;;18.30;99.90;;;;;;1948725;72;21434;-68
2021/07/01 05:48:37;;;;;;;9.03;5.60;;;18.30;99.90;;;;;;1949800;72;21680;-68
2021/07/01 05:51:08;;;;;;;10.03;5.53;;;18.30;99.90;;;;;;1948279;72;21057;-69
2021/07/01 05:53:59;;;;;;;7.78;5.90;;;18.40;99.90;;;;;;1948628;72;21723;-68
2021/07/01 05:56:18;;;;;;;10.40;5.92;;;18.30;99.90;;;;;;1946540;73;21443;-68
2021/07/01 05:58:46;;;;;;;9.68;5.30;;;18.30;99.90;;;;;;1948370;73;21151;-69
2021/07/01 06:01:13;;;;;;;7.62;4.92;;;18.30;99.90;;;;;;1948187;72;21097;-67
2021/07/01 06:03:41;;;;;;;7.87;5.25;;;18.30;99.90;;;;;;1948381;72;21184;-67
2021/07/01 06:06:12;;;;;;;7.87;5.17;;;18.40;99.90;;;;;;1948347;73;21239;-68
2021/07/01 06:08:41;;;;;;;5.92;4.97;;;18.40;99.90;;;;;;1946236;73;21089;-68
2021/07/01 06:11:09;;;;;;;6.22;4.60;;;18.40;99.90;;;;;;1950618;72;21156;-68
2021/07/01 06:13:39;;;;;;;11.90;4.62;;;18.40;99.90;;;;;;1950392;72;21149;-68
2021/07/01 06:16:13;;;;;;;8.23;4.72;;;18.40;99.90;;;;;;1934248;72;21138;-72
2021/07/01 06:18:42;;;;;;;5.12;4.45;;;18.40;99.90;;;;;;1985200;71;21058;-75
2021/07/01 06:21:11;;;;;;;7.70;4.20;;;18.40;99.90;;;;;;1985472;72;21548;-72
2021/07/01 06:23:41;;;;;;;7.83;4.70;;;18.40;99.90;;;;;;1985291;71;21038;-71
2021/07/01 06:26:09;;;;;;;6.00;4.50;;;18.40;99.90;;;;;;1970310;71;21112;-71
2021/07/01 06:28:42;;;;;;;5.55;4.03;;;18.50;99.90;;;;;;1950627;72;21138;-69
2021/07/01 06:31:07;;;;;;;7.45;4.47;;;18.50;99.90;;;;;;1948532;73;21587;-71
2021/07/01 06:33:37;;;;;;;5.20;4.40;;;18.50;99.90;;;;;;1912537;75;21473;-70
2021/07/01 06:36:06;;;;;;;5.45;4.05;;;18.40;99.90;;;;;;1899740;74;21059;-70
2021/07/01 06:38:36;;;;;;;7.80;3.98;;;18.40;99.90;;;;;;1867552;76;21720;-70
2021/07/01 06:41:05;;;;;;;8.00;4.03;;;18.50;99.90;;;;;;1878171;75;21171;-70
2021/07/01 06:43:33;;;;;;;5.80;3.80;;;18.50;99.90;;;;;;1899639;74;21528;-72
2021/07/01 06:46:01;;;;;;;5.25;3.85;;;18.50;99.90;;;;;;1870268;75;21749;-72
2021/07/01 06:48:29;;;;;;;5.60;3.90;;;18.60;99.90;;;;;;1873373;75;21148;-72
2021/07/01 06:51:00;;;;;;;6.55;4.22;;;18.60;99.90;;;;;;1904589;74;21259;-72
2021/07/01 06:53:29;;;;;;;6.40;4.20;;;18.60;99.90;;;;;;1909691;74;22210;-72
2021/07/01 06:55:56;;;;;;;5.25;4.37;;;18.60;99.90;;;;;;1910957;74;21177;-72
2021/07/01 06:58:24;;;;;;;6.45;4.60;;;18.70;99.90;;;;;;1914805;74;22014;-72
2021/07/01 07:00:51;;;;;;;7.97;4.83;;;18.70;99.90;;;;;;1905469;74;21108;-70
2021/07/01 07:03:20;;;;;;;6.22;4.78;;;18.70;99.90;;;;;;1900189;74;21211;-71
2021/07/01 07:05:52;;;;;;;8.75;4.53;;;18.70;99.90;;;;;;1905756;74;21533;-70
2021/07/01 07:08:21;;;;;;;5.65;4.70;;;18.70;99.90;;;;;;1898538;74;21038;-71
2021/07/01 07:10:50;;;;;;;6.53;5.30;;;18.70;99.90;;;;;;1869148;75;21076;-71
2021/07/01 07:13:19;;;;;;;7.97;5.10;;;18.80;99.90;;;;;;1895799;74;21038;-70
2021/07/01 07:15:48;;;;;;;8.33;5.50;;;18.80;99.90;;;;;;1911725;74;21646;-70
2021/07/01 07:18:29;;;;;;;7.62;6.20;;;18.80;99.90;;;;;;1861003;76;21513;-70
2021/07/01 07:20:58;;;;;;;8.05;5.62;;;18.90;99.90;;;;;;1857104;75;21085;-70
2021/07/01 07:23:34;;;;;;;10.72;6.12;;;18.80;99.90;;;;;;1898886;74;21054;-70
2021/07/01 07:26:11;;;;;;;9.63;6.03;;;18.80;99.90;;;;;;1850393;76;21239;-70
2021/07/01 07:28:39;;;;;;;7.08;6.12;;;18.80;99.90;;;;;;1873884;75;21594;-71
2021/07/01 07:31:07;;;;;;;7.55;5.60;;;18.80;99.90;;;;;;1884405;76;21154;-71
2021/07/01 07:33:35;;;;;;;6.30;5.70;;;18.80;99.90;;;;;;1868561;75;21117;-71
2021/07/01 07:36:03;;;;;;;9.60;6.97;;;18.80;99.90;;;;;;1899740;74;21101;-71
2021/07/01 07:38:31;;;;;;;7.33;6.40;;;18.80;99.90;;;;;;1907549;74;21058;-70
2021/07/01 07:40:58;;;;;;;10.18;7.55;;;18.90;99.90;;;;;;1912369;74;21129;-70
2021/07/01 07:43:27;;;;;;;11.78;9.38;;;18.90;99.90;;;;;;1897580;74;21139;-70
2021/07/01 07:45:57;;;;;;;11.95;8.75;;;19.00;99.90;;;;;;1896137;74;21549;-70
2021/07/01 07:48:25;;;;;;;10.88;9.08;;;19.00;99.90;;;;;;1905014;74;21552;-70
2021/07/01 07:50:54;;;;;;;12.28;9.13;;;19.00;99.90;;;;;;1902685;74;21030;-70
2021/07/01 07:53:26;;;;;;;13.18;9.28;;;19.00;99.90;;;;;;1897609;74;21107;-71
2021/07/01 07:55:57;;;;;;;12.73;9.15;;;19.10;99.90;;;;;;1893141;74;21058;-71
2021/07/01 07:58:25;;;;;;;12.03;9.75;;;19.10;99.90;;;;;;1903698;74;21111;-71
2021/07/01 08:00:54;;;;;;;13.98;10.63;;;19.20;99.90;;;;;;1889694;74;21164;-70
2021/07/01 08:03:22;;;;;;;13.05;10.80;;;19.20;99.90;;;;;;1895772;74;21567;-71
2021/07/01 08:05:50;;;;;;;12.73;10.50;;;19.20;99.90;;;;;;1904697;74;21129;-71
2021/07/01 08:08:18;;;;;;;15.18;11.18;;;19.30;99.90;;;;;;1874772;75;21111;-70
2021/07/01 08:10:48;;;;;;;15.45;11.05;;;19.30;99.90;;;;;;1867717;75;21238;-70
2021/07/01 08:13:15;;;;;;;16.97;11.85;;;19.30;99.90;;;;;;1898492;74;21637;-70
2021/07/01 08:15:43;;;;;;;15.80;11.30;;;19.30;99.90;;;;;;1902786;73;21101;-70
2021/07/01 08:18:13;;;;;;;17.70;11.70;;;19.40;99.90;;;;;;1893866;74;21520;-69
2021/07/01 08:20:41;;;;;;;14.58;11.10;;;19.40;99.90;;;;;;1875225;75;21102;-69
2021/07/01 08:23:08;;;;;;;14.93;12.28;;;19.40;99.90;;;;;;1882382;75;21136;-70
2021/07/01 08:25:37;;;;;;;15.88;12.73;;;19.40;99.90;;;;;;1878841;75;21218;-72
2021/07/01 08:28:04;;;;;;;20.02;13.20;;;19.40;99.90;;;;;;1891027;75;21158;-76
2021/07/01 08:30:32;;;;;;;15.75;13.03;;;19.50;99.90;;;;;;1877725;75;21180;-75
2021/07/01 08:33:01;;;;;;;14.50;11.78;;;19.60;99.90;;;;;;1868842;75;22211;-75
2021/07/01 08:35:30;;;;;;;17.17;13.20;;;19.70;99.90;;;;;;1869217;76;21093;-75
2021/07/01 08:38:01;;;;;;;16.30;13.20;;;19.70;99.90;;;;;;1882433;75;21164;-75
2021/07/01 08:40:34;;;;;;;22.22;13.72;;;19.80;99.90;;;;;;1877427;75;21558;-75
2021/07/01 08:43:03;;;;;;;17.65;14.58;;;19.80;99.90;;;;;;1876846;75;21025;-75
2021/07/01 08:45:34;;;;;;;18.60;14.30;;;19.80;99.90;;;;;;1873723;75;21157;-75
2021/07/01 08:48:04;;;;;;;15.10;13.00;;;19.90;99.90;;;;;;1864875;76;21681;-75
2021/07/01 08:50:33;;;;;;;17.32;13.22;;;19.90;99.90;;;;;;1896402;75;21054;-75
2021/07/01 08:53:09;;;;;;;17.05;13.45;;;19.90;99.90;;;;;;1877569;75;21101;-75
2021/07/01 08:55:40;;;;;;;15.10;12.85;;;20.00;99.90;;;;;;1876502;73;21133;-75
2021/07/01 08:58:10;;;;;;;18.30;15.00;;;19.90;99.90;;;;;;1872445;75;21654;-75
2021/07/01 09:00:40;;;;;;;19.25;13.48;;;20.00;99.90;;;;;;1872527;75;21015;-76
2021/07/01 09:03:10;;;;;;;16.27;13.45;;;20.00;99.90;;;;;;1878518;75;21142;-76
2021/07/01 09:05:39;;;;;;;17.80;13.48;;;20.00;99.90;;;;;;1876908;75;21137;-75
2021/07/01 09:08:09;;;;;;;14.87;12.85;;;20.00;99.90;;;;;;1879389;75;21678;-76
2021/07/01 09:10:37;;;;;;;19.82;14.05;;;20.10;99.90;;;;;;1879735;75;21078;-75
2021/07/01 09:13:10;;;;;;;14.50;12.20;;;20.10;99.90;;;;;;1875330;75;22689;-75
2021/07/01 09:15:38;;;;;;;18.52;13.20;;;20.10;99.90;;;;;;1891681;75;21200;-75
2021/07/01 09:18:08;;;;;;;14.93;12.60;;;20.20;99.90;;;;;;1881793;75;21079;-75
2021/07/01 09:20:38;;;;;;;16.60;14.25;;;20.20;99.90;;;;;;1866440;75;21138;-75
2021/07/01 09:23:08;;;;;;;16.02;13.55;;;20.20;99.90;;;;;;1893184;74;21173;-75
2021/07/01 09:25:37;;;;;;;13.93;12.25;;;20.30;99.90;;;;;;1897418;73;21114;-75
2021/07/01 09:28:05;;;;;;;16.15;13.38;;;20.30;99.90;;;;;;1908540;74;21109;-76
2021/07/01 09:30:34;;;;;;;16.95;13.50;;;20.40;99.90;;;;;;1901604;74;21051;-76
2021/07/01 09:33:04;;;;;;;19.00;13.85;;;20.40;99.90;;;;;;1902923;74;21729;-75
2021/07/01 09:35:35;;;;;;;17.60;14.50;;;20.40;99.90;;;;;;1899482;74;21145;-75
2021/07/01 09:38:05;;;;;;;14.58;13.08;;;20.40;99.90;;;;;;1901243;74;21221;-76
2021/07/01 09:40:35;;;;;;;17.60;13.32;;;20.50;99.90;;;;;;1896312;74;21030;-76
2021/07/01 09:43:06;;;;;;;17.62;12.45;;;20.50;99.90;;;;;;1896908;74;21034;-75
2021/07/01 09:45:36;;;;;;;15.50;11.55;;;20.60;99.90;;;;;;1913664;74;21069;-75
2021/07/01 09:48:08;;;;;;;16.77;12.50;;;20.60;99.90;;;;;;1906282;74;21038;-76
2021/07/01 09:50:44;;;;;;;17.37;12.10;;;20.60;99.90;;;;;;1901729;74;21108;-75
2021/07/01 09:53:10;;;;;;;14.45;11.28;;;20.60;99.90;;;;;;1895597;74;21154;-75
2021/07/01 09:55:39;;;;;;;19.00;11.68;;;20.60;99.90;;;;;;1901431;74;21117;-76
2021/07/01 09:58:10;;;;;;;13.80;11.95;;;20.70;99.90;;;;;;1903309;74;21112;-75
2021/07/01 10:00:37;;;;;;;15.15;11.88;;;20.70;99.90;;;;;;1900732;74;21167;-75
2021/07/01 10:03:10;;;;;;;14.20;11.30;;;20.70;99.90;;;;;;1895674;74;21141;-75
2021/07/01 10:05:38;;;;;;;13.43;11.43;;;20.80;99.90;;;;;;1898449;74;21144;-75
2021/07/01 10:08:06;;;;;;;12.30;10.98;;;20.80;99.90;;;;;;1909444;74;21140;-76
2021/07/01 10:10:51;;;;;;;13.72;11.18;;;20.80;99.90;;;;;;1902899;74;21215;-75
2021/07/01 10:13:20;;;;;;;15.50;11.25;;;20.80;99.90;;;;;;1895604;74;21131;-76
2021/07/01 10:15:50;;;;;;;14.20;11.03;;;20.80;99.90;;;;;;1895310;74;21117;-76
2021/07/01 10:18:20;;;;;;;15.05;11.88;;;20.80;99.90;;;;;;1899096;74;21110;-76
2021/07/01 10:20:50;;;;;;;13.03;11.12;;;20.80;99.90;;;;;;1896180;74;21231;-76
2021/07/01 10:23:39;;;;;;;16.32;11.28;;;20.90;99.90;;;;;;1900204;74;21566;-76
2021/07/01 10:26:16;;;;;;;12.78;10.75;;;20.90;99.90;;;;;;1828155;77;21726;-76
2021/07/01 10:28:58;;;;;;;14.23;11.30;;;20.90;99.90;;;;;;1916728;73;21674;-76
2021/07/01 10:31:25;;;;;;;;;;;20.90;99.90;;;;;;1910860;73;21243;-76
2021/07/01 10:34:00;;;;;;;12.80;11.38;;;20.90;99.90;;;;;;1913628;73;20216;-76
2021/07/01 10:36:28;;;;;;;18.52;11.18;;;21.00;99.90;;;;;;1914342;73;21176;-75
2021/07/01 10:38:56;;;;;;;16.62;12.25;;;21.00;99.90;;;;;;1909295;73;21798;-76
2021/07/01 10:41:36;;;;;;;16.25;12.47;;;21.00;99.90;;;;;;1916525;73;21200;-74
2021/07/01 10:44:05;;;;;;;14.83;12.15;;;21.10;99.90;;;;;;1878281;73;21202;-75
2021/07/01 10:46:48;;;;;;;16.35;11.75;;;21.10;99.90;;;;;;1918572;73;21116;-74
2021/07/01 10:49:15;;;;;;;;;;;21.20;99.90;;;;;;1918732;73;21117;-74
2021/07/01 10:51:57;;;;;;;20.60;11.85;;;21.20;99.90;;;;;;1917040;73;20187;-75
2021/07/01 10:54:25;;;;;;;15.55;12.10;;;21.20;99.90;;;;;;1912827;73;21156;-74
2021/07/01 10:56:55;;;;;;;16.30;11.30;;;21.30;99.90;;;;;;1916944;73;21116;-74
2021/07/01 10:59:23;;;;;;;17.02;11.50;;;21.30;99.90;;;;;;1915624;73;21057;-74
2021/07/01 11:01:54;;;;;;;19.02;11.40;;;21.30;99.90;;;;;;1915689;73;21032;-75
2021/07/01 11:04:22;;;;;;;16.60;11.40;;;21.40;99.90;;;;;;1914162;73;21052;-75
2021/07/01 11:07:04;;;;;;;14.45;11.73;;;21.40;99.90;;;;;;1919699;73;21620;-75
2021/07/01 11:09:45;;;;;;;13.48;11.35;;;21.40;99.90;;;;;;1922901;73;21014;-76
2021/07/01 11:12:13;;;;;;;14.13;11.15;;;21.50;99.90;;;;;;1922191;73;21070;-76
2021/07/01 11:14:42;;;;;;;14.35;10.63;;;21.50;99.90;;;;;;1911979;73;21071;-75
2021/07/01 11:17:10;;;;;;;15.88;11.08;;;21.50;99.90;;;;;;1921383;73;21105;-76
2021/07/01 11:19:46;;;;;;;15.50;10.78;;;21.50;99.90;;;;;;1929406;73;21616;-76
2021/07/01 11:22:15;;;;;;;14.15;10.20;;;21.60;99.90;;;;;;1916262;73;21141;-77
2021/07/01 11:24:45;;;;;;;14.40;10.08;;;21.60;99.90;;;;;;1915378;73;21122;-75
2021/07/01 11:27:15;;;;;;;17.35;10.18;;;21.70;99.90;;;;;;1918794;73;21603;-76
2021/07/01 11:29:47;;;;;;;13.75;9.95;;;21.70;99.90;;;;;;1934919;72;21107;-76
2021/07/01 11:32:26;;;;;;;13.88;9.15;;;21.70;99.90;;;;;;1912103;75;21338;-76
2021/07/01 11:35:17;;;;;;;12.63;9.45;;;21.80;99.90;;;;;;1912456;72;21075;-77
2021/07/01 11:37:45;;;;;;;13.30;9.10;;;21.80;99.90;;;;;;1889173;75;21071;-76
2021/07/01 11:40:22;;;;;;;12.07;9.15;;;21.80;99.90;;;;;;1905939;75;21570;-77
2021/07/01 11:42:51;;;;;;;12.43;8.20;;;21.80;99.90;;;;;;1886685;75;21136;-76
2021/07/01 11:45:20;;;;;;;10.10;8.40;;;21.80;99.90;;;;;;1895595;75;21096;-76
2021/07/01 11:47:49;;;;;;;9.65;8.18;;;21.80;99.90;;;;;;1895256;75;21093;-76
2021/07/01 11:50:17;;;;;;;11.78;8.90;;;21.90;99.90;;;;;;1881435;75;21057;-76
2021/07/01 11:52:45;;;;;;;11.12;9.10;;;21.90;99.90;;;;;;1884310;74;21057;-76
2021/07/01 11:55:13;;;;;;;11.30;8.73;;;21.90;99.90;;;;;;1905604;74;21045;-75
2021/07/01 11:57:41;;;;;;;13.08;8.53;;;21.90;99.90;;;;;;1907472;75;21649;-76
2021/07/01 12:00:09;;;;;;;11.73;8.55;;;21.90;99.90;;;;;;1882780;75;21515;-76
2021/07/01 12:02:38;;;;;;;12.30;8.43;;;22.00;99.90;;;;;;1887350;73;21027;-76
2021/07/01 12:05:09;;;;;;;9.33;7.40;;;22.00;99.90;;;;;;1889315;75;21101;-76
2021/07/01 12:07:41;;;;;;;10.00;7.72;;;22.00;99.90;;;;;;1888503;74;21696;-76
2021/07/01 12:10:07;;;;;;;9.98;7.58;;;22.10;99.90;;;;;;1894957;75;21125;-77
2021/07/01 12:12:35;;;;;;;9.60;7.28;;;22.10;99.90;;;;;;1892315;75;21170;-76
2021/07/01 12:15:11;;;;;;;10.43;8.03;;;22.10;99.90;;;;;;1888566;74;21136;-75
2021/07/01 12:17:58;;;;;;;8.15;7.12;;;22.20;99.90;;;;;;1882054;74;21170;-74
2021/07/01 12:20:40;;;;;;;10.80;7.55;;;22.20;99.90;;;;;;1883223;74;21143;-74
2021/07/01 12:23:15;;;;;;;;;;;22.20;99.90;;;;;;1894025;73;21622;-74
2021/07/01 12:25:45;;;;;;;8.48;6.42;;;22.30;99.90;;;;;;1888039;75;20196;-74
2021/07/01 12:28:23;;;;;;;9.40;7.28;;;22.30;99.90;;;;;;1891101;75;21174;-74
2021/07/01 12:30:57;;;;;;;11.18;7.00;;;22.40;99.90;;;;;;1884563;75;21101;-75
2021/07/01 12:33:36;;;;;;;8.78;6.42;;;22.40;99.90;;;;;;1889390;74;21061;-75
2021/07/01 12:36:25;;;;;;;7.50;6.47;;;22.40;99.90;;;;;;1896755;74;21041;-75
2021/07/01 12:39:25;;;;;;;10.58;6.80;;;22.40;99.90;;;;;;1891834;74;21069;-73
2021/07/01 12:41:55;;;;;;;12.00;7.37;;;22.50;99.90;;;;;;1773902;79;21148;-74
2021/07/01 12:44:29;;;;;;;10.95;7.00;;;22.50;99.90;;;;;;1791349;78;21656;-74